Time;durP1;ratioP1;P1;durP2;ratioP2;P2;SDS_P1;SDS_P2;PMS_P1;PMS_P2;Temp;Humidity;BMP_temperature;BMP_pressure;BME280_temperature;BME280_humidity;BME280_pressure;Samples;Min_cycle;Max_cycle;Signal;HPM_P1;HPM_P2
2023/11/02 00:01:05;;;;;;;2.40;1.50;;;;;;;9.87;100.00;99722.62;88298;283;136452;-72
2023/11/02 00:03:07;;;;;;;2.70;1.60;;;;;;;9.88;100.00;99724.13;88419;283;22527;-70
2023/11/02 00:05:40;;;;;;;2.30;1.50;;;;;;;9.89;100.00;99725.61;88554;283;136435;-70
2023/11/02 00:07:45;;;;;;;3.20;1.30;;;;;;;9.89;100.00;99723.73;88379;285;22543;-71
2023/11/02 00:09:48;;;;;;;1.80;1.70;;;;;;;9.88;100.00;99722.70;88323;283;136290;-72
2023/11/02 00:11:56;;;;;;;1.70;1.60;;;;;;;9.87;100.00;99725.82;88451;283;25216;-74
2023/11/02 00:13:57;;;;;;;2.40;2.20;;;;;;;9.87;100.00;99720.52;88661;283;137899;-72
2023/11/02 00:16:02;;;;;;;3.00;1.90;;;;;;;9.86;100.00;99720.27;88382;276;22540;-72
2023/11/02 00:18:04;;;;;;;2.50;2.30;;;;;;;9.86;100.00;99721.96;88652;285;25183;-74
2023/11/02 00:20:08;;;;;;;1.70;1.60;;;;;;;9.85;100.00;99722.55;88197;283;136764;-74
2023/11/02 00:22:10;;;;;;;3.50;2.80;;;;;;;9.84;100.00;99723.59;88416;283;22528;-73
2023/11/02 00:24:14;;;;;;;2.60;1.90;;;;;;;9.83;100.00;99720.02;88410;283;136718;-74
2023/11/02 00:26:19;;;;;;;6.30;4.50;;;;;;;9.83;100.00;99720.39;88729;280;24030;-76
2023/11/02 00:28:24;;;;;;;2.20;2.10;;;;;;;9.82;100.00;99718.98;88230;276;136610;-75
2023/11/02 00:30:25;;;;;;;4.20;3.30;;;;;;;9.83;100.00;99717.98;88331;283;22536;-75
2023/11/02 00:32:27;;;;;;;2.70;2.50;;;;;;;9.85;100.00;99721.83;88195;280;137925;-74
2023/11/02 00:34:29;;;;;;;3.30;3.10;;;;;;;9.83;100.00;99721.63;88333;283;25226;-75
2023/11/02 00:36:31;;;;;;;2.80;2.60;;;;;;;9.82;100.00;99723.54;88305;276;136622;-73
2023/11/02 00:38:33;;;;;;;3.30;3.00;;;;;;;9.79;100.00;99725.78;88424;284;25328;-74
2023/11/02 00:40:35;;;;;;;2.40;2.20;;;;;;;9.78;100.00;99726.67;88338;279;136747;-75
2023/11/02 00:42:39;;;;;;;2.90;2.70;;;;;;;9.76;100.00;99724.95;88588;277;22623;-73
2023/11/02 00:44:41;;;;;;;3.60;3.30;;;;;;;9.75;100.00;99724.85;88550;279;138942;-75
2023/11/02 00:46:44;;;;;;;4.00;3.70;;;;;;;9.75;100.00;99724.52;88525;280;22527;-74
2023/11/02 00:48:47;;;;;;;2.80;2.60;;;;;;;9.75;100.00;99722.69;88488;276;137592;-74
2023/11/02 00:51:00;;;;;;;3.20;2.80;;;;;;;9.76;100.00;99730.27;88772;277;22553;-75
2023/11/02 00:53:02;;;;;;;3.00;2.80;;;;;;;9.73;100.00;99727.60;88524;279;136470;-75
2023/11/02 00:55:25;;;;;;;5.80;3.70;;;;;;;9.71;100.00;99724.69;88377;282;22555;-72
2023/11/02 00:57:35;;;;;;;3.70;2.60;;;;;;;9.70;100.00;99728.07;88575;274;136380;-74
2023/11/02 00:59:38;;;;;;;3.50;3.20;;;;;;;9.68;100.00;99727.36;88638;272;22544;-76
2023/11/02 01:01:41;;;;;;;2.50;2.40;;;;;;;9.68;100.00;99726.30;88708;273;136753;-75
2023/11/02 01:03:48;;;;;;;3.60;3.10;;;;;;;9.70;100.00;99723.06;88596;274;25321;-75
2023/11/02 01:05:52;;;;;;;2.70;2.50;;;;;;;9.72;100.00;99723.86;88825;280;137249;-75
2023/11/02 01:07:54;;;;;;;2.60;2.40;;;;;;;9.74;100.00;99722.61;88758;272;25126;-74
2023/11/02 01:09:59;;;;;;;3.60;3.10;;;;;;;9.73;100.00;99722.72;88441;279;138049;-73
2023/11/02 01:12:05;;;;;;;3.00;2.70;;;;;;;9.72;100.00;99721.56;88578;281;25102;-74
2023/11/02 01:14:31;;;;;;;;;;;;;;;9.70;100.00;99723.80;88681;271;22514;-73
2023/11/02 01:16:33;;;;;;;3.30;3.00;;;;;;;9.68;100.00;99726.55;88757;273;123423;-73
2023/11/02 01:18:37;;;;;;;3.30;3.00;;;;;;;9.67;100.00;99727.48;88612;273;22634;-74
2023/11/02 01:20:39;;;;;;;3.50;3.20;;;;;;;9.66;100.00;99731.77;88532;278;138072;-73
2023/11/02 01:23:11;;;;;;;3.70;3.40;;;;;;;9.66;100.00;99728.75;88854;279;25160;-73
2023/11/02 01:25:13;;;;;;;3.40;3.10;;;;;;;9.66;100.00;99732.06;88625;273;136837;-74
2023/11/02 01:27:27;;;;;;;4.10;3.70;;;;;;;9.68;100.00;99734.68;88644;280;25168;-73
2023/11/02 01:29:31;;;;;;;4.00;3.30;;;;;;;9.68;100.00;99734.70;88459;272;136936;-74
2023/11/02 01:31:35;;;;;;;4.50;3.60;;;;;;;9.68;100.00;99735.39;88589;271;25077;-73
2023/11/02 01:33:39;;;;;;;3.60;3.40;;;;;;;9.67;100.00;99734.44;88513;279;136739;-74
2023/11/02 01:35:46;;;;;;;4.10;3.60;;;;;;;9.67;100.00;99736.89;88780;280;25080;-74
2023/11/02 01:37:49;;;;;;;3.40;3.20;;;;;;;9.69;100.00;99737.36;88592;280;138243;-77
2023/11/02 01:40:08;;;;;;;2.50;2.40;;;;;;;9.70;100.00;99737.08;88620;273;24101;-74
2023/11/02 01:42:19;;;;;;;3.40;3.10;;;;;;;9.71;100.00;99735.13;88596;276;24061;-75
2023/11/02 01:44:30;;;;;;;4.00;3.70;;;;;;;9.70;100.00;99735.73;88405;278;137414;-73
2023/11/02 01:47:09;;;;;;;3.20;3.00;;;;;;;9.67;100.00;99736.74;88542;280;22521;-75
2023/11/02 01:49:18;;;;;;;2.60;2.50;;;;;;;9.64;100.00;99738.98;88525;272;136895;-72
2023/11/02 01:51:33;;;;;;;3.40;3.10;;;;;;;9.62;100.00;99743.34;88656;277;22517;-73
2023/11/02 01:53:51;;;;;;;2.90;2.70;;;;;;;9.62;100.00;99745.75;88417;273;137585;-73
2023/11/02 01:56:16;;;;;;;3.20;2.90;;;;;;;9.61;100.00;99745.31;88656;276;22527;-73
2023/11/02 01:58:37;;;;;;;2.70;2.40;;;;;;;9.62;100.00;99748.83;88543;273;25083;-73
2023/11/02 02:00:59;;;;;;;4.60;2.70;;;;;;;9.61;100.00;99748.42;88388;272;136334;-73
2023/11/02 02:03:18;;;;;;;2.50;2.30;;;;;;;9.58;100.00;99750.39;88601;276;22530;-73
2023/11/02 02:05:52;;;;;;;3.30;2.60;;;;;;;9.54;100.00;99749.31;88473;279;136789;-72
2023/11/02 02:07:56;;;;;;;3.60;2.40;;;;;;;9.54;100.00;99757.95;88701;280;26328;-72
2023/11/02 02:10:13;;;;;;;4.70;3.10;;;;;;;9.52;100.00;99757.45;88461;274;136119;-71
2023/11/02 02:12:37;;;;;;;3.00;2.70;;;;;;;9.50;100.00;99763.33;88390;274;136930;-74
2023/11/02 02:15:20;;;;;;;2.90;2.70;;;;;;;9.49;100.00;99763.52;88733;277;24024;-71
2023/11/02 02:17:35;;;;;;;2.40;2.30;;;;;;;9.46;100.00;99757.21;88470;281;137123;-76
2023/11/02 02:19:39;;;;;;;3.90;3.40;;;;;;;9.44;100.00;99758.46;88925;271;23975;-73
2023/11/02 02:21:55;;;;;;;3.30;3.10;;;;;;;9.44;100.00;99759.52;88694;279;137039;-73
2023/11/02 02:24:05;;;;;;;3.50;3.30;;;;;;;9.43;100.00;99760.55;88520;280;22539;-73
2023/11/02 02:26:23;;;;;;;4.50;2.90;;;;;;;9.42;100.00;99761.23;88531;280;24014;-73
2023/11/02 02:28:39;;;;;;;3.90;2.10;;;;;;;9.40;100.00;99763.67;88771;279;136747;-73
2023/11/02 02:31:15;;;;;;;2.60;2.40;;;;;;;9.38;100.00;99763.88;88638;273;22883;-74
2023/11/02 02:33:38;;;;;;;2.60;2.40;;;;;;;9.30;100.00;99756.40;88496;279;136966;-73
2023/11/02 02:36:01;;;;;;;2.60;2.50;;;;;;;9.31;100.00;99770.57;88684;278;22612;-73
2023/11/02 02:38:19;;;;;;;3.80;3.40;;;;;;;9.23;100.00;99765.56;88455;273;137731;-74
2023/11/02 02:40:32;;;;;;;3.60;3.30;;;;;;;9.14;100.00;99764.89;88560;279;137234;-71
2023/11/02 02:42:36;;;;;;;3.80;3.50;;;;;;;9.06;100.00;99767.64;88763;276;22545;-73
2023/11/02 02:44:41;;;;;;;2.80;2.60;;;;;;;9.01;100.00;99769.80;88407;281;137732;-73
2023/11/02 02:46:43;;;;;;;3.60;3.10;;;;;;;8.97;100.00;99767.64;88626;272;25338;-72
2023/11/02 02:48:47;;;;;;;3.70;3.40;;;;;;;8.92;100.00;99772.80;88449;272;136791;-71
2023/11/02 02:50:57;;;;;;;5.50;3.00;;;;;;;8.89;100.00;99770.00;88785;280;25076;-73
2023/11/02 02:53:01;;;;;;;4.60;3.10;;;;;;;8.85;100.00;99772.59;88541;277;138270;-72
2023/11/02 02:55:08;;;;;;;3.40;3.20;;;;;;;8.81;100.00;99773.11;88709;276;22552;-72
2023/11/02 02:57:12;;;;;;;4.80;3.80;;;;;;;8.77;100.00;99776.55;88565;276;137826;-73
2023/11/02 02:59:17;;;;;;;2.90;2.70;;;;;;;8.75;100.00;99776.16;88747;272;26306;-73
2023/11/02 03:01:21;;;;;;;3.70;3.40;;;;;;;8.70;100.00;99776.73;88435;272;136833;-74
2023/11/02 03:03:25;;;;;;;4.30;3.20;;;;;;;8.67;100.00;99781.41;88703;274;22606;-73
2023/11/02 03:05:29;;;;;;;3.80;3.60;;;;;;;8.62;100.00;99788.02;88466;279;138157;-72
2023/11/02 03:07:31;;;;;;;3.40;3.20;;;;;;;8.56;100.00;99788.56;90348;273;24649;-72
2023/11/02 03:09:38;;;;;;;3.80;2.90;;;;;;;8.53;100.00;99791.02;88575;272;136877;-73
2023/11/02 03:11:43;;;;;;;3.70;3.50;;;;;;;8.48;100.00;99795.02;88661;271;23858;-72
2023/11/02 03:13:46;;;;;;;;;;;;;;;8.45;100.00;99801.84;88621;271;136688;-68
2023/11/02 03:15:51;;;;;;;6.50;3.70;;;;;;;8.40;100.00;99803.25;88588;279;24018;-72
2023/11/02 03:18:11;;;;;;;4.80;4.30;;;;;;;8.36;100.00;99805.36;88472;275;136648;-75
2023/11/02 03:20:16;;;;;;;8.50;4.10;;;;;;;8.30;100.00;99807.45;88578;279;137183;-72
2023/11/02 03:22:21;;;;;;;4.80;3.90;;;;;;;8.25;100.00;99805.77;88673;279;25077;-72
2023/11/02 03:24:41;;;;;;;4.50;3.70;;;;;;;8.21;100.00;99810.04;88454;275;137048;-72
2023/11/02 03:26:59;;;;;;;4.10;3.40;;;;;;;8.16;100.00;99810.23;88533;273;24227;-71
2023/11/02 03:29:26;;;;;;;3.50;3.20;;;;;;;8.13;100.00;99808.56;88542;279;136678;-72
2023/11/02 03:31:55;;;;;;;3.50;3.20;;;;;;;8.12;100.00;99809.61;88667;276;22596;-69
2023/11/02 03:34:03;;;;;;;3.10;2.90;;;;;;;8.11;100.00;99809.42;88593;276;136267;-70
2023/11/02 03:36:12;;;;;;;2.80;2.60;;;;;;;8.09;100.00;99808.66;88566;279;137477;-69
2023/11/02 03:38:44;;;;;;;4.60;3.80;;;;;;;8.10;100.00;99807.11;88805;277;22530;-72
2023/11/02 03:40:46;;;;;;;2.50;2.40;;;;;;;8.07;100.00;99808.90;88542;277;136840;-72
2023/11/02 03:43:17;;;;;;;2.90;2.70;;;;;;;8.08;100.00;99811.55;88710;277;23698;-68
2023/11/02 03:45:25;;;;;;;2.80;2.60;;;;;;;8.06;100.00;99812.02;88485;276;136751;-73
2023/11/02 03:47:57;;;;;;;4.00;2.90;;;;;;;8.06;100.00;99813.81;88642;279;26246;-69
2023/11/02 03:50:05;;;;;;;3.00;2.70;;;;;;;8.01;100.00;99814.48;88731;279;137265;-72
2023/11/02 03:52:29;;;;;;;5.00;3.00;;;;;;;8.00;100.00;99815.38;88473;279;138033;-69
2023/11/02 03:54:39;;;;;;;2.60;2.40;;;;;;;7.96;100.00;99814.35;88627;273;22541;-74
2023/11/02 03:56:58;;;;;;;2.70;2.50;;;;;;;7.92;100.00;99816.41;88604;276;137008;-71
2023/11/02 03:59:08;;;;;;;2.30;2.10;;;;;;;7.86;100.00;99820.03;88642;276;24230;-74
2023/11/02 04:01:41;;;;;;;2.70;2.40;;;;;;;7.81;100.00;99823.40;88707;276;136878;-71
2023/11/02 04:03:48;;;;;;;2.80;2.60;;;;;;;7.76;100.00;99825.05;88730;272;22539;-71
2023/11/02 04:05:57;;;;;;;2.40;2.20;;;;;;;7.74;100.00;99823.76;88536;271;136609;-70
2023/11/02 04:08:16;;;;;;;3.70;3.00;;;;;;;7.72;100.00;99822.75;88650;279;24025;-77
2023/11/02 04:10:24;;;;;;;5.00;2.40;;;;;;;7.68;100.00;99821.96;88797;272;23979;-72
2023/11/02 04:12:44;;;;;;;3.00;2.80;;;;;;;7.62;100.00;99824.41;90260;273;136616;-72
2023/11/02 04:14:49;;;;;;;2.30;2.20;;;;;;;7.58;100.00;99827.73;88739;279;25157;-73
2023/11/02 04:16:51;;;;;;;;;;;;;;;7.55;100.00;99830.39;88605;280;136792;-73
2023/11/02 04:18:55;;;;;;;2.70;2.40;;;;;;;7.51;100.00;99830.82;88860;279;22541;-71
2023/11/02 04:20:57;;;;;;;3.40;3.10;;;;;;;7.48;100.00;99828.52;88841;276;136601;-71
2023/11/02 04:23:00;;;;;;;3.00;2.80;;;;;;;7.47;100.00;99826.58;89048;279;22531;-71
2023/11/02 04:25:02;;;;;;;2.70;2.50;;;;;;;7.46;100.00;99831.49;88867;272;136852;-72
2023/11/02 04:27:04;;;;;;;3.50;2.70;;;;;;;7.44;100.00;99831.12;89024;281;22657;-73
2023/11/02 04:29:07;;;;;;;2.30;2.10;;;;;;;7.43;100.00;99824.39;89006;276;136681;-72
2023/11/02 04:31:08;;;;;;;2.50;2.40;;;;;;;7.39;100.00;99825.84;89018;280;23866;-72
2023/11/02 04:33:10;;;;;;;2.80;1.90;;;;;;;7.35;100.00;99822.31;88779;279;136923;-69
2023/11/02 04:35:13;;;;;;;2.80;2.60;;;;;;;7.32;100.00;99826.69;88683;279;22547;-70
2023/11/02 04:37:17;;;;;;;7.00;2.80;;;;;;;7.30;100.00;99826.10;88591;279;137034;-68
2023/11/02 04:39:21;;;;;;;2.70;2.10;;;;;;;7.26;100.00;99829.96;88608;272;24103;-66
2023/11/02 04:41:23;;;;;;;3.30;2.80;;;;;;;7.20;100.00;99831.46;88481;279;136610;-70
2023/11/02 04:43:25;;;;;;;2.90;2.70;;;;;;;7.16;100.00;99833.52;88650;276;22534;-70
2023/11/02 04:45:28;;;;;;;6.40;5.50;;;;;;;7.13;100.00;99830.48;88522;277;136720;-71
2023/11/02 04:47:30;;;;;;;4.80;4.10;;;;;;;7.11;100.00;99833.52;88611;280;24034;-72
2023/11/02 04:49:34;;;;;;;4.70;2.60;;;;;;;7.12;100.00;99836.23;88544;272;137008;-67
2023/11/02 04:51:36;;;;;;;3.30;3.00;;;;;;;7.14;100.00;99837.52;88663;272;22536;-70
2023/11/02 04:53:37;;;;;;;3.20;2.90;;;;;;;7.13;100.00;99838.27;88514;279;136588;-69
2023/11/02 04:55:41;;;;;;;3.80;2.90;;;;;;;7.10;100.00;99837.86;88653;280;26279;-70
2023/11/02 04:57:43;;;;;;;3.20;2.90;;;;;;;7.07;100.00;99839.02;88583;276;136438;-70
2023/11/02 04:59:46;;;;;;;5.10;2.80;;;;;;;7.04;100.00;99838.25;88595;272;24052;-72
2023/11/02 05:01:50;;;;;;;3.40;3.10;;;;;;;7.05;100.00;99834.30;88161;277;136641;-69
2023/11/02 05:03:55;;;;;;;5.60;3.00;;;;;;;7.04;100.00;99833.19;88959;276;25210;-71
2023/11/02 05:05:57;;;;;;;2.70;2.60;;;;;;;7.04;100.00;99837.25;88416;276;136384;-71
2023/11/02 05:07:59;;;;;;;3.70;3.10;;;;;;;7.08;100.00;99837.00;88498;272;22596;-72
2023/11/02 05:10:03;;;;;;;3.20;2.40;;;;;;;7.10;100.00;99839.73;88525;273;136271;-70
2023/11/02 05:12:05;;;;;;;2.70;2.50;;;;;;;7.13;100.00;99845.20;88462;277;136773;-69
2023/11/02 05:14:07;;;;;;;2.40;2.30;;;;;;;7.14;100.00;99844.85;88494;279;22527;-70
2023/11/02 05:16:08;;;;;;;2.50;2.40;;;;;;;7.16;100.00;99852.15;88331;277;136998;-69
2023/11/02 05:18:10;;;;;;;3.90;2.90;;;;;;;7.17;100.00;99855.76;88471;277;25131;-71
2023/11/02 05:20:12;;;;;;;3.10;2.90;;;;;;;7.18;100.00;99855.70;88370;279;136980;-70
2023/11/02 05:22:14;;;;;;;2.20;2.10;;;;;;;7.20;100.00;99860.81;88555;279;23023;-68
2023/11/02 05:24:16;;;;;;;3.10;2.80;;;;;;;7.31;100.00;99865.16;88364;277;138243;-68
2023/11/02 05:26:18;;;;;;;2.70;2.50;;;;;;;7.65;100.00;99856.11;88452;274;23778;-72
2023/11/02 05:28:20;;;;;;;3.00;2.50;;;;;;;8.20;100.00;99855.78;88357;272;137158;-71
2023/11/02 05:30:23;;;;;;;2.10;1.90;;;;;;;8.78;100.00;99861.64;88582;272;25102;-73
2023/11/02 05:32:25;;;;;;;2.60;2.40;;;;;;;9.38;100.00;99863.74;88667;272;136963;-77
2023/11/02 05:34:27;;;;;;;2.40;2.30;;;;;;;9.87;100.00;99868.40;89084;277;25356;-74
2023/11/02 05:36:29;;;;;;;3.20;2.20;;;;;;;10.25;100.00;99869.17;88280;273;136147;-75
2023/11/02 05:38:31;;;;;;;1.80;1.70;;;;;;;10.66;100.00;99875.70;88414;281;22587;-74
2023/11/02 05:40:32;;;;;;;1.60;1.50;;;;;;;11.11;100.00;99875.15;88255;273;138203;-73
2023/11/02 05:42:34;;;;;;;1.50;1.50;;;;;;;11.36;99.47;99875.23;88468;279;24014;-75
2023/11/02 05:44:36;;;;;;;1.30;1.20;;;;;;;11.28;98.28;99879.73;88418;273;135913;-76
2023/11/02 05:46:39;;;;;;;3.50;1.70;;;;;;;11.00;97.84;99887.58;88612;277;24019;-77
2023/11/02 05:48:41;;;;;;;1.90;1.50;;;;;;;10.64;98.82;99895.67;88646;272;136318;-72
2023/11/02 05:50:44;;;;;;;1.30;1.30;;;;;;;10.30;100.00;99898.55;88548;271;25280;-74
2023/11/02 05:52:46;;;;;;;1.60;1.50;;;;;;;10.03;100.00;99903.61;88360;275;136159;-77
2023/11/02 05:54:47;;;;;;;3.70;2.00;;;;;;;9.77;100.00;99902.90;88072;272;629639;-79
2023/11/02 05:56:49;;;;;;;1.90;1.70;;;;;;;9.64;100.00;99906.27;88296;271;136298;-74
2023/11/02 05:58:53;;;;;;;2.80;1.60;;;;;;;9.48;100.00;99909.50;88346;279;22600;-73
2023/11/02 06:00:55;;;;;;;2.30;1.90;;;;;;;9.33;100.00;99912.54;88380;272;136654;-75
2023/11/02 06:02:57;;;;;;;2.30;2.20;;;;;;;9.26;100.00;99917.83;88465;277;22541;-75
2023/11/02 06:04:59;;;;;;;2.50;2.30;;;;;;;9.19;100.00;99917.50;88377;273;137496;-72
2023/11/02 06:07:00;;;;;;;2.70;2.50;;;;;;;9.09;100.00;99915.08;88440;272;24202;-75
2023/11/02 06:09:03;;;;;;;2.20;2.10;;;;;;;9.02;100.00;99916.72;88321;271;138135;-71
2023/11/02 06:11:04;;;;;;;2.40;2.20;;;;;;;8.98;100.00;99918.65;88540;272;25197;-73
2023/11/02 06:13:06;;;;;;;3.10;2.90;;;;;;;8.94;100.00;99917.87;88430;272;136957;-74
2023/11/02 06:15:10;;;;;;;2.10;1.90;;;;;;;8.87;100.00;99917.79;88380;276;22542;-73
2023/11/02 06:17:13;;;;;;;5.00;2.60;;;;;;;8.84;100.00;99918.53;88495;272;136877;-68
2023/11/02 06:19:14;;;;;;;2.40;2.00;;;;;;;8.86;100.00;99918.50;88407;271;23766;-75
2023/11/02 06:21:16;;;;;;;3.00;2.20;;;;;;;8.88;100.00;99918.61;88982;272;136546;-74
2023/11/02 06:23:18;;;;;;;4.70;2.20;;;;;;;8.90;100.00;99922.89;88957;271;22521;-74
2023/11/02 06:25:21;;;;;;;2.10;2.00;;;;;;;8.91;100.00;99923.71;88925;272;136312;-72
2023/11/02 06:27:23;;;;;;;2.10;1.90;;;;;;;8.92;100.00;99920.34;89039;276;22638;-73
2023/11/02 06:29:24;;;;;;;3.00;2.70;;;;;;;8.94;100.00;99920.13;88912;272;137766;-70
2023/11/02 06:31:26;;;;;;;5.70;3.70;;;;;;;8.97;100.00;99921.74;88496;271;25169;-72
2023/11/02 06:33:30;;;;;;;2.80;2.60;;;;;;;9.01;100.00;99916.02;89010;272;137609;-72
2023/11/02 06:35:33;;;;;;;2.20;2.00;;;;;;;9.03;100.00;99918.91;89073;272;23000;-72
2023/11/02 06:37:56;;;;;;;2.10;1.90;;;;;;;9.04;100.00;99916.84;88978;277;137685;-73
2023/11/02 06:39:59;;;;;;;1.90;1.60;;;;;;;9.04;100.00;99917.40;89161;279;25561;-73
2023/11/02 06:42:01;;;;;;;2.10;2.00;;;;;;;9.03;100.00;99919.44;89229;280;136628;-70
2023/11/02 06:44:04;;;;;;;5.60;2.20;;;;;;;9.03;100.00;99923.16;88956;274;136938;-72
2023/11/02 06:46:06;;;;;;;2.30;2.10;;;;;;;9.05;100.00;99921.63;91201;273;22369;-72
2023/11/02 06:48:09;;;;;;;2.20;2.10;;;;;;;9.11;100.00;99919.88;89036;277;136599;-71
2023/11/02 06:50:14;;;;;;;1.70;1.40;;;;;;;9.16;100.00;99922.39;90285;280;22529;-71
2023/11/02 06:52:16;;;;;;;1.90;1.80;;;;;;;9.20;100.00;99926.33;89056;280;138076;-71
2023/11/02 06:54:18;;;;;;;3.00;2.80;;;;;;;9.27;100.00;99925.36;89162;272;23643;-70
2023/11/02 06:56:21;;;;;;;3.60;2.50;;;;;;;9.34;100.00;99929.80;88789;276;139058;-73
2023/11/02 06:58:23;;;;;;;2.10;2.00;;;;;;;9.38;100.00;99927.60;88838;272;22699;-73
2023/11/02 07:00:28;;;;;;;2.30;1.90;;;;;;;9.41;100.00;99928.81;88740;272;136459;-71
2023/11/02 07:02:30;;;;;;;2.70;2.40;;;;;;;9.43;100.00;99926.09;88928;279;23865;-75
2023/11/02 07:04:31;;;;;;;2.40;2.30;;;;;;;9.39;100.00;99923.47;88982;277;136478;-72
2023/11/02 07:06:33;;;;;;;2.30;2.10;;;;;;;9.41;100.00;99926.84;88927;279;22600;-69
2023/11/02 07:08:35;;;;;;;3.30;1.90;;;;;;;9.43;100.00;99926.73;88434;280;136274;-76
2023/11/02 07:10:37;;;;;;;2.30;2.10;;;;;;;9.40;100.00;99916.61;88870;277;24017;-72
2023/11/02 07:12:39;;;;;;;1.90;1.80;;;;;;;9.50;100.00;99927.63;88689;273;136009;-70
2023/11/02 07:14:41;;;;;;;3.60;2.00;;;;;;;9.54;100.00;99927.52;88470;280;22534;-73
2023/11/02 07:16:43;;;;;;;2.40;2.20;;;;;;;9.52;100.00;99913.80;88765;272;137496;-73
2023/11/02 07:18:44;;;;;;;2.80;2.00;;;;;;;9.65;100.00;99927.34;88912;277;23747;-73
2023/11/02 07:20:46;;;;;;;2.50;2.30;;;;;;;9.71;100.00;99930.20;88855;272;136416;-72
2023/11/02 07:22:48;;;;;;;3.30;1.90;;;;;;;9.76;100.00;99924.96;88937;272;22546;-71
2023/11/02 07:24:50;;;;;;;2.50;2.10;;;;;;;9.84;100.00;99920.89;88818;279;136680;-75
2023/11/02 07:26:51;;;;;;;2.20;2.10;;;;;;;9.93;100.00;99920.67;88970;272;22556;-73
2023/11/02 07:28:54;;;;;;;2.80;2.50;;;;;;;9.98;100.00;99920.34;88925;272;136382;-72
2023/11/02 07:30:55;;;;;;;3.00;2.60;;;;;;;10.04;100.00;99924.39;88926;276;22614;-73
2023/11/02 07:32:58;;;;;;;2.30;2.00;;;;;;;10.08;100.00;99922.20;88784;273;136210;-76
2023/11/02 07:34:59;;;;;;;4.70;2.60;;;;;;;10.11;100.00;99926.85;89096;277;25543;-75
2023/11/02 07:37:01;;;;;;;4.30;2.40;;;;;;;10.14;100.00;99930.40;88767;272;136465;-71
2023/11/02 07:39:04;;;;;;;2.70;2.50;;;;;;;10.15;100.00;99935.23;88975;276;25249;-71
2023/11/02 07:41:06;;;;;;;2.70;2.50;;;;;;;10.18;100.00;99932.10;88906;273;135981;-71
2023/11/02 07:43:08;;;;;;;2.50;2.40;;;;;;;10.20;100.00;99928.63;88946;277;22599;-72
2023/11/02 07:45:10;;;;;;;4.00;2.30;;;;;;;10.23;100.00;99930.81;89031;279;137332;-72
2023/11/02 07:47:12;;;;;;;2.40;2.20;;;;;;;10.25;100.00;99933.66;89053;272;22590;-74
2023/11/02 07:49:14;;;;;;;2.10;2.00;;;;;;;10.29;100.00;99933.35;88864;276;137339;-74
2023/11/02 07:51:16;;;;;;;7.60;2.90;;;;;;;10.33;100.00;99930.14;88931;272;22534;-71
2023/11/02 07:53:19;;;;;;;3.00;2.60;;;;;;;10.38;100.00;99938.15;89220;279;137488;-69
2023/11/02 07:55:24;;;;;;;2.90;2.30;;;;;;;10.41;100.00;99940.05;88916;277;22540;-72
2023/11/02 07:57:27;;;;;;;3.60;3.00;;;;;;;10.43;100.00;99945.23;88837;272;137072;-71
2023/11/02 07:59:28;;;;;;;5.70;2.70;;;;;;;10.40;100.00;99936.96;89018;272;24018;-71
2023/11/02 08:01:30;;;;;;;3.30;2.70;;;;;;;10.50;100.00;99946.45;88953;273;137783;-72
2023/11/02 08:03:32;;;;;;;4.10;2.90;;;;;;;10.54;100.00;99942.41;89044;279;22602;-75
2023/11/02 08:05:33;;;;;;;2.40;1.80;;;;;;;10.59;100.00;99941.58;88969;272;137756;-72
2023/11/02 08:07:35;;;;;;;2.90;2.70;;;;;;;10.55;100.00;99926.95;88907;276;22524;-70
2023/11/02 08:09:37;;;;;;;2.30;2.10;;;;;;;10.74;100.00;99941.27;88778;272;137878;-74
2023/11/02 08:11:39;;;;;;;3.10;2.70;;;;;;;10.82;100.00;99938.05;88841;276;22528;-71
2023/11/02 08:13:41;;;;;;;2.80;2.60;;;;;;;10.86;100.00;99933.98;88974;272;137845;-73
2023/11/02 08:15:43;;;;;;;2.70;1.90;;;;;;;10.90;100.00;99930.66;88993;272;23014;-72
2023/11/02 08:17:45;;;;;;;3.80;1.90;;;;;;;10.94;100.00;99930.17;88352;276;136017;-73
2023/11/02 08:19:46;;;;;;;9.60;8.60;;;;;;;10.98;100.00;99934.02;88811;273;22527;-71
2023/11/02 08:21:48;;;;;;;3.70;3.50;;;;;;;11.03;100.00;99934.10;88826;271;136935;-71
2023/11/02 08:23:50;;;;;;;3.50;3.30;;;;;;;11.02;100.00;99924.27;88500;272;23708;-68
2023/11/02 08:25:52;;;;;;;3.50;3.20;;;;;;;11.17;100.00;99939.72;88402;277;135945;-72
2023/11/02 08:27:58;;;;;;;4.00;2.80;;;;;;;11.24;100.00;99945.12;89226;272;25272;-70
2023/11/02 08:30:00;;;;;;;5.70;3.90;;;;;;;11.29;100.00;99949.38;89017;271;135919;-68
2023/11/02 08:32:02;;;;;;;3.60;3.30;;;;;;;11.31;100.00;99952.48;89022;276;22551;-71
2023/11/02 08:34:04;;;;;;;4.80;3.10;;;;;;;11.34;100.00;99953.55;88885;277;24015;-71
2023/11/02 08:36:12;;;;;;;3.60;3.30;;;;;;;11.39;100.00;99951.72;88863;279;136175;-71
2023/11/02 08:38:14;;;;;;;3.60;3.10;;;;;;;11.44;100.00;99953.67;88933;276;24015;-72
2023/11/02 08:40:21;;;;;;;7.10;3.30;;;;;;;11.51;100.00;99951.59;89040;272;136248;-72
2023/11/02 08:42:26;;;;;;;2.60;2.50;;;;;;;11.59;100.00;99951.52;89392;274;22541;-70
2023/11/02 08:44:29;;;;;;;3.00;2.70;;;;;;;11.64;99.83;99952.17;88723;276;136231;-72
2023/11/02 08:46:36;;;;;;;2.50;2.30;;;;;;;11.66;99.58;99953.17;88833;274;25146;-73
2023/11/02 08:48:39;;;;;;;5.00;2.50;;;;;;;11.72;99.48;99955.42;89132;273;135796;-72
2023/11/02 08:50:41;;;;;;;3.70;1.60;;;;;;;11.78;97.56;99955.18;88795;272;25216;-72
2023/11/02 08:52:43;;;;;;;1.70;1.50;;;;;;;11.79;96.70;99952.20;88706;274;137469;-72
2023/11/02 08:54:45;;;;;;;1.40;1.30;;;;;;;11.77;96.88;99953.14;89189;272;22664;-72
2023/11/02 08:56:46;;;;;;;1.30;1.20;;;;;;;11.79;97.25;99948.95;88812;276;137069;-71
2023/11/02 08:58:51;;;;;;;1.70;1.30;;;;;;;11.83;96.93;99943.02;88905;276;22792;-71
2023/11/02 09:00:53;;;;;;;2.70;1.30;;;;;;;11.88;96.59;99946.11;88809;276;135775;-72
2023/11/02 09:02:54;;;;;;;1.20;1.10;;;;;;;11.92;96.61;99938.82;88847;275;22533;-72
2023/11/02 09:04:56;;;;;;;1.90;1.10;;;;;;;11.94;96.47;99937.41;88804;276;135780;-70
2023/11/02 09:06:58;;;;;;;3.00;1.90;;;;;;;11.96;96.46;99938.98;88996;272;23868;-71
2023/11/02 09:09:00;;;;;;;2.40;2.00;;;;;;;12.00;96.87;99936.27;88952;273;137630;-70
2023/11/02 09:11:04;;;;;;;3.70;1.80;;;;;;;12.06;96.64;99933.66;88926;279;22552;-70
2023/11/02 09:13:05;;;;;;;2.30;2.10;;;;;;;12.11;96.91;99930.09;88968;279;136215;-70
2023/11/02 09:15:08;;;;;;;2.50;2.10;;;;;;;12.15;97.01;99928.85;88643;272;23393;-72
2023/11/02 09:17:10;;;;;;;2.10;1.50;;;;;;;12.20;97.05;99923.48;89105;279;135985;-67
2023/11/02 09:19:12;;;;;;;2.60;2.40;;;;;;;12.29;97.41;99923.91;88652;276;22528;-71
2023/11/02 09:21:14;;;;;;;5.40;1.50;;;;;;;12.37;97.38;99922.50;88481;272;136006;-71
2023/11/02 09:23:17;;;;;;;2.30;2.10;;;;;;;12.44;96.41;99921.29;89262;277;22533;-72
2023/11/02 09:25:19;;;;;;;3.40;2.40;;;;;;;12.47;96.09;99919.14;88746;272;137408;-73
2023/11/02 09:27:20;;;;;;;1.40;1.40;;;;;;;12.52;96.56;99917.80;88915;277;22530;-73
2023/11/02 09:29:22;;;;;;;2.60;2.40;;;;;;;12.54;97.15;99917.48;88774;279;135888;-71
2023/11/02 09:31:29;;;;;;;3.20;1.80;;;;;;;12.56;97.04;99915.73;89142;277;24407;-69
2023/11/02 09:33:31;;;;;;;3.00;1.90;;;;;;;12.63;97.49;99910.97;88610;277;135997;-72
2023/11/02 09:35:34;;;;;;;2.30;2.20;;;;;;;12.68;97.22;99910.25;88518;273;22550;-71
2023/11/02 09:37:36;;;;;;;3.40;2.10;;;;;;;12.67;96.93;99908.73;88861;277;136464;-78
2023/11/02 09:39:37;;;;;;;6.40;3.10;;;;;;;12.63;96.88;99905.34;88896;273;23711;-73
2023/11/02 09:41:39;;;;;;;4.00;3.30;;;;;;;12.61;97.24;99900.98;88756;277;135806;-69
2023/11/02 09:43:41;;;;;;;4.80;2.50;;;;;;;12.59;97.50;99901.45;89030;277;25553;-70
2023/11/02 09:45:43;;;;;;;3.30;3.00;;;;;;;12.60;97.94;99895.93;88694;273;135788;-72
2023/11/02 09:47:45;;;;;;;2.40;2.30;;;;;;;12.64;98.25;99895.99;88857;273;22632;-70
2023/11/02 09:49:47;;;;;;;3.70;3.30;;;;;;;12.64;98.20;99893.73;88392;272;137319;-71
2023/11/02 09:51:50;;;;;;;3.80;3.60;;;;;;;12.61;98.24;99895.96;88868;278;22534;-74
2023/11/02 09:53:52;;;;;;;3.10;2.70;;;;;;;12.62;98.80;99891.96;89174;277;137388;-73
2023/11/02 09:57:06;;;;;;;5.40;2.90;;;;;;;12.60;100.00;99891.69;87125;303;602872;-76